| time (UTC) | temp F | wind direction | speed MPH | gust MPH | rain 1hr in | rain 24hr in | rain mn in | humidity % | barometer mb |
| 20260510174539 | 54 | 297 | 6.0 | 21.0 | 0.00 | 0.01 | 0.00 | 40 | 1018.4 |
| 20260510173037 | 55 | 323 | 12.0 | 19.0 | 0.00 | 0.01 | 0.00 | 42 | 1018.4 |
| 20260510171536 | 54 | 308 | 5.0 | 17.0 | 0.00 | 0.01 | 0.00 | 43 | 1018.6 |
| 20260510170039 | 54 | 296 | 6.0 | 15.0 | 0.00 | 0.01 | 0.00 | 42 | 1018.5 |
| 20260510164534 | 54 | 329 | 3.0 | 13.0 | 0.00 | 0.01 | 0.00 | 45 | 1018.4 |
| 20260510163035 | 53 | 321 | 6.0 | 17.0 | 0.00 | 0.01 | 0.00 | 46 | 1018.4 |
| 20260510161529 | 53 | 23 | 6.0 | 16.0 | 0.00 | 0.01 | 0.00 | 44 | 1018.4 |
| 20260510160028 | 53 | 273 | 7.0 | 15.0 | 0.00 | 0.01 | 0.00 | 46 | 1018.4 |
| 20260510154526 | 52 | 344 | 7.0 | 15.0 | 0.00 | 0.01 | 0.00 | 51 | 1018.4 |
| 20260510153022 | 52 | 320 | 9.0 | 17.0 | 0.00 | 0.01 | 0.00 | 50 | 1018.2 |
| 20260510151521 | 51 | 297 | 6.0 | 13.0 | 0.00 | 0.01 | 0.00 | 52 | 1018.0 |
| 20260510150019 | 51 | 18 | 5.0 | 15.0 | 0.00 | 0.02 | 0.00 | 54 | 1018.1 |
| 20260510144527 | 50 | 315 | 7.0 | 14.0 | 0.00 | 0.02 | 0.00 | 53 | 1017.8 |
| 20260510143018 | 50 | 258 | 4.0 | 9.0 | 0.00 | 0.02 | 0.00 | 55 | 1017.5 |
| 20260510141522 | 49 | 319 | 7.0 | 13.0 | 0.00 | 0.02 | 0.00 | 55 | 1017.5 |
| 20260510140014 | 48 | 12 | 5.0 | 12.0 | 0.00 | 0.02 | 0.00 | 54 | 1017.4 |
| 20260510134511 | 48 | 333 | 5.0 | 13.0 | 0.00 | 0.02 | 0.00 | 57 | 1017.3 |
| 20260510133008 | 47 | 330 | 3.0 | 11.0 | 0.00 | 0.02 | 0.00 | 56 | 1017.1 |
| 20260510131504 | 47 | 20 | 3.0 | 9.0 | 0.00 | 0.02 | 0.00 | 60 | 1016.9 |
| 20260510130000 | 46 | 327 | 5.0 | 9.0 | 0.00 | 0.02 | 0.00 | 61 | 1017.1 |
| 20260510124558 | 46 | 333 | 3.0 | 9.0 | 0.00 | 0.02 | 0.00 | 64 | 1016.8 |
| 20260510123059 | 45 | 320 | 3.0 | 7.0 | 0.00 | 0.02 | 0.00 | 68 | 1016.8 |
| 20260510121555 | 44 | 308 | 2.0 | 5.0 | 0.00 | 0.02 | 0.00 | 73 | 1016.6 |
| 20260510120053 | 42 | 281 | 3.0 | 6.0 | 0.00 | 0.02 | 0.00 | 78 | 1016.5 |
| 20260510114552 | 41 | 315 | 3.0 | 5.0 | 0.00 | 0.02 | 0.00 | 83 | 1016.4 |
| 20260510113106 | 39 | 300 | 2.0 | 4.0 | 0.00 | 0.02 | 0.00 | 88 | 1016.4 |
| 20260510111555 | 37 | 298 | 0.0 | 2.0 | 0.00 | 0.02 | 0.00 | 92 | 1016.1 |
| 20260510110046 | 35 | 311 | 0.0 | 0.0 | 0.00 | 0.02 | 0.00 | 91 | 1015.8 |
| 20260510104550 | 35 | 310 | 0.0 | 0.0 | 0.00 | 0.02 | 0.00 | 91 | 1015.6 |
| 20260510103047 | 33 | 310 | 0.0 | 0.0 | 0.00 | 0.02 | 0.00 | 92 | 1015.5 |
| 20260510101540 | 33 | 310 | 0.0 | 0.0 | 0.00 | 0.02 | 0.00 | 92 | 1015.2 |
| 20260510100037 | 33 | 310 | 0.0 | 0.0 | 0.00 | 0.02 | 0.00 | 92 | 1014.9 |
| 20260510094536 | 33 | 314 | 0.0 | 1.0 | 0.00 | 0.02 | 0.00 | 91 | 1014.6 |
| 20260510093040 | 33 | 304 | 0.0 | 0.0 | 0.00 | 0.02 | 0.00 | 91 | 1014.5 |
| 20260510091530 | 33 | 304 | 0.0 | 0.0 | 0.00 | 0.02 | 0.00 | 90 | 1014.1 |
| 20260510090027 | 34 | 304 | 0.0 | 0.0 | 0.00 | 0.02 | 0.00 | 90 | 1013.8 |
| 20260510084528 | 35 | 304 | 0.0 | 0.0 | 0.00 | 0.02 | 0.00 | 91 | 1013.5 |
| 20260510083031 | 35 | 304 | 0.0 | 0.0 | 0.00 | 0.02 | 0.00 | 90 | 1013.3 |
| 20260510081534 | 35 | 304 | 0.0 | 2.0 | 0.00 | 0.02 | 0.00 | 90 | 1013.0 |
| 20260510080019 | 36 | 304 | 0.0 | 0.0 | 0.00 | 0.02 | 0.00 | 89 | 1012.9 |
| 20260510074515 | 36 | 304 | 1.0 | 2.0 | 0.00 | 0.02 | 0.00 | 90 | 1012.9 |
| 20260510073013 | 36 | 34 | 0.0 | 0.0 | 0.00 | 0.02 | 0.00 | 89 | 1012.6 |
| 20260510071513 | 37 | 34 | 0.0 | 0.0 | 0.00 | 0.02 | 0.00 | 88 | 1012.3 |
| 20260510070005 | 38 | 34 | 0.0 | 0.0 | 0.00 | 0.02 | 0.00 | 85 | 1012.2 |
| 20260510064502 | 39 | 34 | 0.0 | 0.0 | 0.00 | 0.02 | 0.00 | 85 | 1012.0 |
| 20260510063059 | 39 | 34 | 0.0 | 0.0 | 0.00 | 0.02 | 0.00 | 79 | 1011.9 |
| 20260510061555 | 41 | 34 | 0.0 | 1.0 | 0.00 | 0.02 | 0.00 | 78 | 1011.8 |
| 20260510060054 | 43 | 34 | 0.0 | 2.0 | 0.00 | 0.02 | 0.00 | 77 | 1011.6 |
| 20260510054549 | 43 | 34 | 1.0 | 5.0 | 0.00 | 0.02 | 0.00 | 75 | 1011.6 |
| 20260510053103 | 44 | 54 | 3.0 | 7.0 | 0.00 | 0.02 | 0.00 | 75 | 1011.4 |
| 20260510051548 | 45 | 44 | 3.0 | 7.0 | 0.00 | 0.02 | 0.00 | 74 | 1011.2 |
| 20260510050037 | 46 | 9 | 4.0 | 9.0 | 0.00 | 0.02 | 0.00 | 72 | 1010.8 |
| 20260510044546 | 48 | 31 | 8.0 | 13.0 | 0.00 | 0.02 | 0.00 | 70 | 1010.4 |
| 20260510043034 | 48 | 11 | 0.0 | 1.0 | 0.00 | 0.02 | 0.00 | 69 | 1010.0 |
| 20260510041526 | 49 | 13 | 0.0 | 4.0 | 0.00 | 0.02 | 0.00 | 67 | 1009.8 |
| 20260510040035 | 50 | 356 | 1.0 | 5.0 | 0.00 | 0.02 | 0.02 | 65 | 1009.7 |
| 20260510034522 | 51 | 356 | 2.0 | 4.0 | 0.00 | 0.02 | 0.02 | 64 | 1009.7 |
| 20260510033027 | 52 | 343 | 4.0 | 9.0 | 0.00 | 0.02 | 0.02 | 63 | 1009.4 |
| 20260510031519 | 52 | 349 | 3.0 | 6.0 | 0.00 | 0.02 | 0.02 | 64 | 1009.1 |
| 20260510030017 | 53 | 356 | 2.0 | 6.0 | 0.00 | 0.02 | 0.02 | 65 | 1009.0 |
| 20260510024517 | 53 | 344 | 4.0 | 11.0 | 0.00 | 0.02 | 0.02 | 63 | 1008.8 |
| 20260510023012 | 54 | 320 | 7.0 | 13.0 | 0.00 | 0.02 | 0.02 | 63 | 1008.6 |
| 20260510021511 | 54 | 1 | 6.0 | 12.0 | 0.00 | 0.02 | 0.02 | 64 | 1008.2 |
| 20260510020018 | 55 | 358 | 8.0 | 11.0 | 0.00 | 0.02 | 0.02 | 63 | 1007.7 |
| 20260510014509 | 56 | 344 | 5.0 | 18.0 | 0.00 | 0.02 | 0.02 | 61 | 1007.1 |
| 20260510013009 | 57 | 330 | 10.0 | 16.0 | 0.00 | 0.02 | 0.02 | 59 | 1006.6 |
| 20260510011513 | 59 | 354 | 6.0 | 17.0 | 0.00 | 0.02 | 0.02 | 56 | 1006.3 |
| 20260510010007 | 61 | 19 | 13.0 | 20.0 | 0.00 | 0.02 | 0.02 | 52 | 1005.9 |
| 20260510004506 | 61 | 314 | 2.0 | 4.0 | 0.00 | 0.02 | 0.02 | 48 | 1005.0 |
| 20260510003006 | 62 | 283 | 2.0 | 5.0 | 0.00 | 0.02 | 0.02 | 46 | 1005.0 |
| 20260510001506 | 62 | 283 | 4.0 | 13.0 | 0.00 | 0.02 | 0.02 | 45 | 1004.7 |
| 20260510000014 | 63 | 274 | 12.0 | 18.0 | 0.00 | 0.02 | 0.02 | 43 | 1004.5 |
| 20260509234507 | 63 | 286 | 12.0 | 21.0 | 0.00 | 0.02 | 0.02 | 41 | 1004.3 |
| 20260509233007 | 64 | 311 | 14.0 | 24.0 | 0.00 | 0.02 | 0.02 | 42 | 1004.2 |
| 20260509231503 | 65 | 297 | 13.0 | 21.0 | 0.00 | 0.02 | 0.02 | 45 | 1003.9 |
| 20260509230002 | 65 | 314 | 12.0 | 20.0 | 0.00 | 0.02 | 0.02 | 45 | 1003.6 |
| 20260509224500 | 65 | 285 | 6.0 | 20.0 | 0.00 | 0.02 | 0.02 | 49 | 1003.0 |
| 20260509223103 | 66 | 282 | 12.0 | 22.0 | 0.00 | 0.02 | 0.02 | 47 | 1002.7 |
| 20260509221600 | 66 | 297 | 14.0 | 30.0 | 0.00 | 0.02 | 0.02 | 46 | 1002.5 |
| 20260509214559 | 66 | 243 | 9.0 | 27.0 | 0.00 | 0.02 | 0.02 | 48 | 1002.2 |
| 20260509213101 | 66 | 285 | 9.0 | 28.0 | 0.00 | 0.02 | 0.02 | 48 | 1002.1 |
| 20260509211603 | 66 | 284 | 12.0 | 29.0 | 0.00 | 0.02 | 0.02 | 46 | 1001.9 |
| 20260509210056 | 66 | 284 | 10.0 | 27.0 | 0.00 | 0.02 | 0.02 | 48 | 1001.7 |
| 20260509204556 | 66 | 292 | 14.0 | 25.0 | 0.00 | 0.02 | 0.02 | 49 | 1001.6 |
| 20260509203100 | 65 | 283 | 13.0 | 27.0 | 0.00 | 0.02 | 0.02 | 54 | 1001.9 |
| 20260509201601 | 65 | 273 | 14.0 | 29.0 | 0.00 | 0.02 | 0.02 | 50 | 1002.1 |
| 20260509200105 | 65 | 304 | 13.0 | 20.0 | 0.00 | 0.02 | 0.02 | 63 | 1002.3 |
| 20260509194549 | 64 | 283 | 3.0 | 11.0 | 0.00 | 0.02 | 0.02 | 71 | 1002.3 |
| 20260509193109 | 61 | 290 | 5.0 | 12.0 | 0.01 | 0.02 | 0.02 | 74 | 1002.5 |
| 20260509191548 | 58 | 259 | 5.0 | 13.0 | 0.01 | 0.02 | 0.02 | 79 | 1002.7 |
| 20260509190047 | 56 | 255 | 5.0 | 20.0 | 0.01 | 0.02 | 0.02 | 78 | 1002.6 |
| 20260509184559 | 56 | 300 | 17.0 | 32.0 | 0.01 | 0.02 | 0.02 | 78 | 1003.0 |
| 20260509183046 | 65 | 263 | 8.0 | 20.0 | 0.00 | 0.01 | 0.01 | 59 | 1001.5 |
| 20260509181546 | 65 | 229 | 6.0 | 16.0 | 0.00 | 0.01 | 0.01 | 62 | 1001.3 |
| 20260509180041 | 64 | 183 | 5.0 | 11.0 | 0.00 | 0.01 | 0.01 | 73 | 1001.0 |